createdAt,value
2018-04-06T00:00:28.688Z,98098.11
2018-04-06T00:01:00.305Z,98106.20
2018-04-06T00:01:31.900Z,98100.30
2018-04-06T00:02:03.548Z,98104.98
2018-04-06T00:02:35.150Z,98097.79
2018-04-06T00:03:06.764Z,98101.16
2018-04-06T00:03:38.381Z,98097.80
2018-04-06T00:04:10.036Z,98101.69
2018-04-06T00:04:41.675Z,98104.19
2018-04-06T00:05:13.252Z,98098.66
2018-04-06T00:05:44.840Z,98108.49
2018-04-06T00:06:16.444Z,98101.69
2018-04-06T00:06:48.036Z,98111.91
2018-04-06T00:07:19.668Z,98112.77
2018-04-06T00:07:51.276Z,98112.77
2018-04-06T00:08:22.869Z,98116.22
2018-04-06T00:08:54.465Z,98111.54
2018-04-06T00:09:26.054Z,98116.66
2018-04-06T00:09:57.640Z,98120.06
2018-04-06T00:10:29.240Z,98117.97
2018-04-06T00:11:00.848Z,98122.66
2018-04-06T00:11:32.490Z,98117.55
2018-04-06T00:12:04.066Z,98114.63
2018-04-06T00:12:35.658Z,98113.78
2018-04-06T00:13:07.260Z,98115.86
2018-04-06T00:13:38.863Z,98114.20
2018-04-06T00:14:10.480Z,98118.44
2018-04-06T00:14:42.067Z,98124.84
2018-04-06T00:15:13.687Z,98122.73
2018-04-06T00:15:45.297Z,98115.52
2018-04-06T00:16:16.911Z,98120.20
2018-04-06T00:16:48.500Z,98122.32
2018-04-06T00:17:20.111Z,98127.44
2018-04-06T00:17:51.724Z,98123.64
2018-04-06T00:18:23.339Z,98115.51
2018-04-06T00:18:54.936Z,98124.44
2018-04-06T00:19:26.543Z,98121.04
2018-04-06T00:19:58.174Z,98111.26
2018-04-06T00:20:29.770Z,98111.23
2018-04-06T00:21:01.363Z,98111.20
2018-04-06T00:21:32.971Z,98119.31
2018-04-06T00:22:04.584Z,98120.14
2018-04-06T00:22:36.200Z,98105.73
2018-04-06T00:23:07.778Z,98114.20
2018-04-06T00:23:39.368Z,98109.09
2018-04-06T00:24:10.958Z,98112.91
2018-04-06T00:24:42.568Z,98124.83
2018-04-06T00:25:14.204Z,98105.28
2018-04-06T00:25:45.788Z,98105.30
2018-04-06T00:26:17.377Z,98103.60
2018-04-06T00:26:48.959Z,98112.59
2018-04-06T00:27:20.572Z,98104.94
2018-04-06T00:27:52.180Z,98107.91
2018-04-06T00:28:23.772Z,98103.70
2018-04-06T00:28:55.376Z,98110.03
2018-04-06T00:29:26.968Z,98106.62
2018-04-06T00:29:58.558Z,98109.13
2018-04-06T00:30:30.168Z,98118.46
2018-04-06T00:31:01.788Z,98111.67
2018-04-06T00:31:33.402Z,98117.98
2018-04-06T00:32:05.069Z,98124.36
2018-04-06T00:32:36.692Z,98120.53
2018-04-06T00:33:08.311Z,98123.09
2018-04-06T00:33:39.900Z,98122.62
2018-04-06T00:34:11.493Z,98128.58
2018-04-06T00:34:43.086Z,98128.15
2018-04-06T00:35:14.684Z,98127.28
2018-04-06T00:35:46.327Z,98125.59
2018-04-06T00:36:17.956Z,98126.44
2018-04-06T00:36:49.532Z,98126.86
2018-04-06T00:37:21.126Z,98120.91
2018-04-06T00:37:52.713Z,98134.11
2018-04-06T00:38:24.295Z,98129.38
2018-04-06T00:38:55.897Z,98124.32
2018-04-06T00:39:27.502Z,98129.84
2018-04-06T00:39:59.092Z,98133.20
2018-04-06T00:40:30.683Z,98128.14
2018-04-06T00:41:02.340Z,98134.04
2018-04-06T00:41:33.960Z,98137.03
2018-04-06T00:42:05.576Z,98122.98
2018-04-06T00:42:37.168Z,98136.17
2018-04-06T00:43:08.753Z,98112.52
2018-04-06T00:43:40.368Z,98131.02
2018-04-06T00:44:11.966Z,98135.27
2018-04-06T00:44:43.581Z,98134.41
2018-04-06T00:45:15.197Z,98140.76
2018-04-06T00:45:46.848Z,98145.43
2018-04-06T00:46:18.446Z,98141.17
2018-04-06T00:46:50.057Z,98142.02
2018-04-06T00:47:21.649Z,98147.50
2018-04-06T00:47:53.256Z,98144.47
2018-04-06T00:48:24.903Z,98143.61
2018-04-06T00:48:56.502Z,98145.73
2018-04-06T00:49:28.116Z,98138.08
2018-04-06T00:49:59.744Z,98151.27
2018-04-06T00:50:31.356Z,98157.25
2018-04-06T00:51:02.948Z,98152.98
2018-04-06T00:51:34.560Z,98148.23
2018-04-06T00:52:06.193Z,98152.48
2018-04-06T00:52:37.770Z,98155.89
2018-04-06T00:53:09.366Z,98161.88
2018-04-06T00:53:40.980Z,98161.06
2018-04-06T00:54:12.583Z,98158.45
2018-04-06T00:54:44.190Z,98157.98
2018-04-06T00:55:15.803Z,98156.27
2018-04-06T00:55:47.417Z,98164.37
2018-04-06T00:56:19.019Z,98161.39
2018-04-06T00:56:50.628Z,98163.09
2018-04-06T00:57:22.247Z,98153.30
2018-04-06T00:57:53.832Z,98162.70
2018-04-06T00:58:25.402Z,98172.45
2018-04-06T00:58:56.987Z,98168.25
2018-04-06T00:59:28.575Z,98175.05
2018-04-06T01:00:00.179Z,98161.39
2018-04-06T01:00:31.783Z,98164.84
2018-04-06T01:01:03.397Z,98162.28
2018-04-06T01:01:35.007Z,98160.95
2018-04-06T01:02:06.610Z,98169.06
2018-04-06T01:02:38.214Z,98164.37
2018-04-06T01:03:09.832Z,98156.27
2018-04-06T01:03:41.448Z,98160.16
2018-04-06T01:04:13.041Z,98160.58
2018-04-06T01:04:44.649Z,98152.55
2018-04-06T01:05:16.307Z,98156.75
2018-04-06T01:05:47.926Z,98158.08
2018-04-06T01:06:19.539Z,98158.94
2018-04-06T01:06:51.144Z,98159.79
2018-04-06T01:07:22.732Z,98161.02
2018-04-06T01:07:54.320Z,98153.81
2018-04-06T01:08:25.920Z,98156.77
2018-04-06T01:08:57.533Z,98157.71
2018-04-06T01:09:29.141Z,98162.78
2018-04-06T01:10:00.749Z,98164.91
2018-04-06T01:10:32.375Z,98166.61
2018-04-06T01:11:03.954Z,98166.61
2018-04-06T01:11:35.568Z,98165.33
2018-04-06T01:12:07.180Z,98164.04
2018-04-06T01:12:38.762Z,98166.59
2018-04-06T01:13:10.379Z,98166.19
2018-04-06T01:13:41.968Z,98161.12
2018-04-06T01:14:13.580Z,98173.91
2018-04-06T01:14:45.172Z,98168.84
2018-04-06T01:15:16.800Z,98164.59
2018-04-06T01:15:48.408Z,98176.52
2018-04-06T01:16:20.002Z,98170.59
2018-04-06T01:16:51.611Z,98174.48
2018-04-06T01:17:23.207Z,98172.32
2018-04-06T01:17:54.792Z,98177.85
2018-04-06T01:18:26.380Z,98177.42
2018-04-06T01:18:57.988Z,98169.77
2018-04-06T01:19:29.577Z,98172.80
2018-04-06T01:20:01.210Z,98173.59
2018-04-06T01:20:32.840Z,98177.84
2018-04-06T01:21:04.444Z,98181.67
2018-04-06T01:21:36.082Z,98185.52
2018-04-06T01:22:07.687Z,98171.03
2018-04-06T01:22:39.267Z,98184.23
2018-04-06T01:23:10.840Z,98183.38
2018-04-06T01:23:42.428Z,98185.52
2018-04-06T01:24:14.031Z,98190.62
2018-04-06T01:24:45.644Z,98191.05
2018-04-06T01:25:17.227Z,98194.03
2018-04-06T01:25:48.806Z,98185.09
2018-04-06T01:26:20.456Z,98180.89
2018-04-06T01:26:52.059Z,98187.65
2018-04-06T01:27:23.649Z,98174.06
2018-04-06T01:27:55.261Z,98178.27
2018-04-06T01:28:26.858Z,98182.96
2018-04-06T01:28:58.446Z,98184.23
2018-04-06T01:29:30.038Z,98183.85
2018-04-06T01:30:01.673Z,98184.30
2018-04-06T01:30:33.275Z,98183.48
2018-04-06T01:31:04.879Z,98182.22
2018-04-06T01:31:36.459Z,98188.59
2018-04-06T01:32:08.068Z,98184.81
2018-04-06T01:32:39.684Z,98188.13
2018-04-06T01:33:11.287Z,98187.74
2018-04-06T01:33:42.882Z,98186.47
2018-04-06T01:34:14.478Z,98189.02
2018-04-06T01:34:46.088Z,98185.19
2018-04-06T01:35:17.746Z,98186.89
2018-04-06T01:35:49.339Z,98191.53
2018-04-06T01:36:20.934Z,98193.27
2018-04-06T01:36:52.510Z,98190.30
2018-04-06T01:37:24.096Z,98197.11
2018-04-06T01:37:55.695Z,98197.13
2018-04-06T01:38:27.293Z,98190.30
2018-04-06T01:38:58.880Z,98201.78
2018-04-06T01:39:30.468Z,98202.64
2018-04-06T01:40:02.057Z,98203.92
2018-04-06T01:40:33.713Z,98206.91
2018-04-06T01:41:05.328Z,98206.97
2018-04-06T01:41:36.924Z,98209.89
2018-04-06T01:42:08.508Z,98211.58
2018-04-06T01:42:40.117Z,98210.31
2018-04-06T01:43:11.704Z,98211.59
2018-04-06T01:43:43.312Z,98208.19
2018-04-06T01:44:14.910Z,98214.15
2018-04-06T01:44:46.521Z,98212.02
2018-04-06T01:45:18.126Z,98217.17
2018-04-06T01:45:49.741Z,98217.60
2018-04-06T01:46:21.328Z,98216.33
2018-04-06T01:46:53.055Z,98218.02
2018-04-06T01:47:24.663Z,98213.77
2018-04-06T01:47:56.252Z,98220.58
2018-04-06T01:48:27.853Z,98224.41
2018-04-06T01:48:59.444Z,98223.56
2018-04-06T01:49:31.096Z,98228.67
2018-04-06T01:50:02.684Z,98226.17
2018-04-06T01:50:34.272Z,98219.78
2018-04-06T01:51:05.854Z,98234.22
2018-04-06T01:51:37.486Z,98228.30
2018-04-06T01:52:09.070Z,98224.05
2018-04-06T01:52:40.655Z,98224.84
2018-04-06T01:53:12.240Z,98228.67
2018-04-06T01:53:43.829Z,98226.97
2018-04-06T01:54:15.419Z,98232.51
2018-04-06T01:54:47.060Z,98231.66
2018-04-06T01:55:18.676Z,98229.53
2018-04-06T01:55:50.254Z,98229.95
2018-04-06T01:56:21.863Z,98237.19
2018-04-06T01:56:53.480Z,98232.03
2018-04-06T01:57:25.072Z,98240.16
2018-04-06T01:57:56.660Z,98238.47
2018-04-06T01:58:28.248Z,98232.56
2018-04-06T01:58:59.836Z,98231.28
2018-04-06T01:59:31.411Z,98243.17
2018-04-06T02:00:02.993Z,98238.52
2018-04-06T02:00:34.579Z,98241.52
2018-04-06T02:01:06.192Z,98238.53
2018-04-06T02:01:37.789Z,98243.64
2018-04-06T02:02:09.377Z,98240.23
2018-04-06T02:02:40.961Z,98243.22
2018-04-06T02:03:12.596Z,98245.36
2018-04-06T02:03:44.176Z,98243.65
2018-04-06T02:04:15.765Z,98251.73
2018-04-06T02:04:47.372Z,98247.91
2018-04-06T02:05:18.974Z,98254.77
2018-04-06T02:05:50.583Z,98250.51
2018-04-06T02:06:22.171Z,98258.21
2018-04-06T02:06:53.747Z,98257.79
2018-04-06T02:07:25.346Z,98262.44
2018-04-06T02:07:56.946Z,98258.22
2018-04-06T02:08:28.562Z,98255.24
2018-04-06T02:09:00.176Z,98263.76
2018-04-06T02:09:31.769Z,98263.33
2018-04-06T02:10:03.371Z,98261.63
2018-04-06T02:10:34.965Z,98260.77
2018-04-06T02:11:06.561Z,98267.59
2018-04-06T02:11:38.163Z,98263.76
2018-04-06T02:12:09.750Z,98261.66
2018-04-06T02:12:41.350Z,98268.48
2018-04-06T02:13:12.990Z,98263.80
2018-04-06T02:13:44.580Z,98268.05
2018-04-06T02:14:16.167Z,98264.61
2018-04-06T02:14:47.771Z,98268.91
2018-04-06T02:15:19.350Z,98272.31
2018-04-06T02:15:50.946Z,98267.16
2018-04-06T02:16:22.541Z,98266.73
2018-04-06T02:16:54.163Z,98267.63
2018-04-06T02:17:25.739Z,98276.09
2018-04-06T02:17:57.324Z,98272.27
2018-04-06T02:18:28.906Z,98270.98
2018-04-06T02:19:00.502Z,98279.45
2018-04-06T02:19:32.119Z,98274.78
2018-04-06T02:20:03.708Z,98276.91
2018-04-06T02:20:35.293Z,98282.00
2018-04-06T02:21:06.891Z,98280.30
2018-04-06T02:21:38.552Z,98283.67
2018-04-06T02:22:10.149Z,98283.66
2018-04-06T02:22:41.735Z,98282.81
2018-04-06T02:23:13.364Z,98291.80
2018-04-06T02:23:44.943Z,98285.75
2018-04-06T02:24:16.597Z,98295.15
2018-04-06T02:24:48.224Z,98291.31
2018-04-06T02:25:19.807Z,98291.28
2018-04-06T02:25:51.417Z,98289.15
2018-04-06T02:26:23.004Z,98291.27
2018-04-06T02:26:54.612Z,98289.93
2018-04-06T02:27:26.215Z,98293.72
2018-04-06T02:27:57.873Z,98293.24
2018-04-06T02:28:29.491Z,98285.63
2018-04-06T02:29:01.092Z,98293.56
2018-04-06T02:29:32.686Z,98296.55
2018-04-06T02:30:04.311Z,98293.55
2018-04-06T02:30:35.924Z,98288.88
2018-04-06T02:31:07.537Z,98288.02
2018-04-06T02:31:39.140Z,98292.66
2018-04-06T02:32:10.732Z,98287.61
2018-04-06T02:32:42.311Z,98289.30
2018-04-06T02:33:13.944Z,98293.09
2018-04-06T02:33:45.572Z,98287.13
2018-04-06T02:34:17.143Z,98292.28
2018-04-06T02:34:48.782Z,98293.98
2018-04-06T02:35:20.385Z,98295.22
2018-04-06T02:35:51.973Z,98299.00
2018-04-06T02:36:23.555Z,98295.20
2018-04-06T02:36:55.140Z,98292.17
2018-04-06T02:37:26.734Z,98294.30
2018-04-06T02:37:58.352Z,98310.49
2018-04-06T02:38:29.949Z,98286.69
2018-04-06T02:39:01.543Z,98304.58
2018-04-06T02:39:33.137Z,98303.68
2018-04-06T02:40:04.793Z,98296.45
2018-04-06T02:40:36.395Z,98300.65
2018-04-06T02:41:08.009Z,98302.34
2018-04-06T02:41:39.613Z,98297.28
2018-04-06T02:42:11.225Z,98308.79
2018-04-06T02:42:42.841Z,98310.02
2018-04-06T02:43:14.448Z,98307.46
2018-04-06T02:43:46.041Z,98305.70
2018-04-06T02:44:17.631Z,98314.64
2018-04-06T02:44:49.224Z,98318.05
2018-04-06T02:45:20.889Z,98310.81
2018-04-06T02:45:52.507Z,98317.16
2018-04-06T02:46:24.096Z,98309.91
2018-04-06T02:46:55.760Z,98309.95
2018-04-06T02:47:27.357Z,98313.79
2018-04-06T02:47:58.945Z,98319.71
2018-04-06T02:48:30.532Z,98309.48
2018-04-06T02:49:02.124Z,98318.38
2018-04-06T02:49:33.717Z,98317.56
2018-04-06T02:50:05.309Z,98310.75
2018-04-06T02:50:36.949Z,98311.23
2018-04-06T02:51:08.550Z,98319.33
2018-04-06T02:51:40.134Z,98315.92
2018-04-06T02:52:11.749Z,98316.30
2018-04-06T02:52:43.360Z,98320.98
2018-04-06T02:53:14.953Z,98320.56
2018-04-06T02:53:47.591Z,98313.75
2018-04-06T02:54:19.169Z,98324.82
2018-04-06T02:54:50.761Z,98318.00
2018-04-06T02:55:22.368Z,98320.94
2018-04-06T02:55:53.978Z,98320.98
2018-04-06T02:56:25.578Z,98322.31
2018-04-06T02:56:57.168Z,98318.84
2018-04-06T02:57:28.776Z,98326.52
2018-04-06T02:58:00.389Z,98322.69
2018-04-06T02:58:32.000Z,98319.33
2018-04-06T02:59:03.612Z,98323.96
2018-04-06T02:59:35.209Z,98321.42
2018-04-06T03:00:06.820Z,98323.53
2018-04-06T03:00:38.466Z,98322.27
2018-04-06T03:01:10.052Z,98325.23
2018-04-06T03:01:41.645Z,98323.97
2018-04-06T03:02:13.229Z,98323.12
2018-04-06T03:02:44.840Z,98331.20
2018-04-06T03:03:16.433Z,98325.67
2018-04-06T03:03:48.036Z,98330.34
2018-04-06T03:04:19.680Z,98328.22
2018-04-06T03:04:51.278Z,98327.38
2018-04-06T03:05:22.896Z,98326.91
2018-04-06T03:05:54.484Z,98326.47
2018-04-06T03:06:26.062Z,98329.08
2018-04-06T03:06:57.686Z,98331.25
2018-04-06T03:07:29.287Z,98333.81
2018-04-06T03:08:00.876Z,98337.70
2018-04-06T03:08:32.475Z,98335.15
2018-04-06T03:09:04.084Z,98333.05
2018-04-06T03:09:35.784Z,98334.77
2018-04-06T03:10:07.371Z,98330.13
2018-04-06T03:10:38.982Z,98330.09
2018-04-06T03:11:10.584Z,98339.44
2018-04-06T03:11:42.184Z,98339.45
2018-04-06T03:12:13.797Z,98337.37
2018-04-06T03:12:45.447Z,98340.83
2018-04-06T03:13:17.046Z,98326.11
2018-04-06T03:13:48.660Z,98319.78
2018-04-06T03:14:20.276Z,98346.37
2018-04-06T03:14:51.922Z,98345.98
2018-04-06T03:15:23.471Z,98340.45
2018-04-06T03:15:55.072Z,98337.47
2018-04-06T03:16:26.728Z,98340.07
2018-04-06T03:16:58.340Z,98337.52
2018-04-06T03:17:29.928Z,98342.25
2018-04-06T03:18:01.513Z,98345.66
2018-04-06T03:18:33.104Z,98345.23
2018-04-06T03:19:04.691Z,98344.81
2018-04-06T03:19:36.277Z,98351.20
2018-04-06T03:20:07.869Z,98344.42
2018-04-06T03:20:39.476Z,98357.20
2018-04-06T03:21:11.139Z,98345.33
2018-04-06T03:21:42.739Z,98338.52
2018-04-06T03:22:14.322Z,98349.54
2018-04-06T03:22:45.926Z,98352.94
2018-04-06T03:23:17.544Z,98345.32
2018-04-06T03:23:49.126Z,98348.30
2018-04-06T03:24:20.712Z,98350.02
2018-04-06T03:24:52.288Z,98347.48
2018-04-06T03:25:23.867Z,98351.72
2018-04-06T03:25:55.442Z,98350.91
2018-04-06T03:26:27.059Z,98351.78
2018-04-06T03:26:58.659Z,98356.03
2018-04-06T03:27:30.267Z,98356.45
2018-04-06T03:28:01.905Z,98354.80
2018-04-06T03:28:33.480Z,98359.91
2018-04-06T03:29:05.065Z,98355.23
2018-04-06T03:29:36.678Z,98356.08
2018-04-06T03:30:08.274Z,98359.09
2018-04-06T03:30:39.881Z,98365.88
2018-04-06T03:31:11.488Z,98368.03
2018-04-06T03:31:43.080Z,98356.94
2018-04-06T03:32:14.734Z,98356.13
2018-04-06T03:32:46.330Z,98362.50
2018-04-06T03:33:17.926Z,98365.06
2018-04-06T03:33:49.506Z,98365.06
2018-04-06T03:34:21.095Z,98362.55
2018-04-06T03:34:52.694Z,98366.38
2018-04-06T03:35:24.312Z,98369.79
2018-04-06T03:35:55.924Z,98367.23
2018-04-06T03:36:27.512Z,98363.02
2018-04-06T03:36:59.120Z,98371.50
2018-04-06T03:37:30.722Z,98372.39
2018-04-06T03:38:02.312Z,98368.52
2018-04-06T03:38:33.890Z,98369.84
2018-04-06T03:39:05.472Z,98366.86
2018-04-06T03:39:37.061Z,98369.84
2018-04-06T03:40:08.673Z,98372.00
2018-04-06T03:40:40.288Z,98372.83
2018-04-06T03:41:11.879Z,98367.33
2018-04-06T03:41:43.504Z,98370.73
2018-04-06T03:42:15.139Z,98371.16
2018-04-06T03:42:46.728Z,98369.07
2018-04-06T03:43:18.317Z,98378.44
2018-04-06T03:43:50.128Z,98379.28
2018-04-06T03:44:21.720Z,98378.01
2018-04-06T03:44:53.323Z,98372.48
2018-04-06T03:45:24.968Z,98375.45
2018-04-06T03:45:56.558Z,98378.44
2018-04-06T03:46:28.134Z,98376.31
2018-04-06T03:46:59.735Z,98379.25
2018-04-06T03:47:31.348Z,98386.05
2018-04-06T03:48:02.980Z,98385.63
2018-04-06T03:48:34.576Z,98389.88
2018-04-06T03:49:06.210Z,98383.89
2018-04-06T03:49:37.824Z,98381.33
2018-04-06T03:50:09.468Z,98391.50
2018-04-06T03:50:41.060Z,98393.20
2018-04-06T03:51:12.674Z,98385.55
2018-04-06T03:51:44.260Z,98385.12
2018-04-06T03:52:15.852Z,98386.82
2018-04-06T03:52:47.464Z,98387.67
2018-04-06T03:53:19.128Z,98389.38
2018-04-06T03:53:50.716Z,98386.86
2018-04-06T03:54:22.300Z,98396.19
2018-04-06T03:54:53.886Z,98391.50
2018-04-06T03:55:25.516Z,98389.38
2018-04-06T03:55:57.100Z,98383.03
2018-04-06T03:56:28.700Z,98392.78
2018-04-06T03:57:00.309Z,98392.36
2018-04-06T03:57:31.894Z,98397.89
2018-04-06T03:58:03.490Z,98395.29
2018-04-06T03:58:35.123Z,98394.39
2018-04-06T03:59:06.748Z,98392.22
2018-04-06T03:59:38.338Z,98395.67
2018-04-06T04:00:09.948Z,98394.78
2018-04-06T04:00:41.535Z,98392.69
2018-04-06T04:01:13.114Z,98393.06
2018-04-06T04:01:44.731Z,98395.52
2018-04-06T04:02:16.320Z,98393.44
2018-04-06T04:02:47.904Z,98396.03
2018-04-06T04:03:19.517Z,98388.85
2018-04-06T04:03:51.128Z,98398.22
2018-04-06T04:04:22.771Z,98399.55
2018-04-06T04:04:54.379Z,98401.67
2018-04-06T04:05:25.997Z,98406.83
2018-04-06T04:05:57.608Z,98400.87
2018-04-06T04:06:29.248Z,98393.72
2018-04-06T04:07:00.865Z,98396.22
2018-04-06T04:07:32.488Z,98402.19
2018-04-06T04:08:04.071Z,98409.42
2018-04-06T04:08:35.660Z,98406.06
2018-04-06T04:09:07.250Z,98402.70
2018-04-06T04:09:38.860Z,98410.36
2018-04-06T04:10:10.448Z,98406.95
2018-04-06T04:10:42.056Z,98411.62
2018-04-06T04:11:13.653Z,98406.45
2018-04-06T04:11:45.296Z,98407.77
2018-04-06T04:12:16.880Z,98404.86
2018-04-06T04:12:48.487Z,98408.70
2018-04-06T04:13:20.076Z,98407.08
2018-04-06T04:13:51.688Z,98412.23
2018-04-06T04:14:23.272Z,98414.83
2018-04-06T04:14:54.860Z,98415.67
2018-04-06T04:15:26.468Z,98414.83
2018-04-06T04:15:58.062Z,98416.10
2018-04-06T04:16:29.725Z,98415.25
2018-04-06T04:17:01.320Z,98419.08
2018-04-06T04:17:32.898Z,98422.06
2018-04-06T04:18:04.504Z,98417.80
2018-04-06T04:18:36.100Z,98419.93
2018-04-06T04:19:07.724Z,98420.78
2018-04-06T04:19:39.312Z,98421.25
2018-04-06T04:20:10.910Z,98422.52
2018-04-06T04:20:42.524Z,98422.52
2018-04-06T04:21:14.118Z,98422.09
2018-04-06T04:21:45.709Z,98418.27
2018-04-06T04:22:17.287Z,98421.63
2018-04-06T04:22:48.885Z,98422.48
2018-04-06T04:23:20.497Z,98424.19
2018-04-06T04:23:52.084Z,98426.70
2018-04-06T04:24:23.668Z,98426.70
2018-04-06T04:24:55.252Z,98428.40
2018-04-06T04:25:26.845Z,98425.38
2018-04-06T04:25:58.430Z,98422.36
2018-04-06T04:26:30.007Z,98429.55
2018-04-06T04:27:01.637Z,98426.54
2018-04-06T04:27:33.293Z,98429.52
2018-04-06T04:28:04.909Z,98431.17
2018-04-06T04:28:36.518Z,98430.28
2018-04-06T04:29:08.113Z,98433.64
2018-04-06T04:29:39.703Z,98429.38
2018-04-06T04:30:11.308Z,98430.67
2018-04-06T04:30:42.897Z,98431.51
2018-04-06T04:31:14.484Z,98437.47
2018-04-06T04:31:46.073Z,98432.78
2018-04-06T04:32:17.720Z,98432.32
2018-04-06T04:32:49.306Z,98437.39
2018-04-06T04:33:20.910Z,98438.23
2018-04-06T04:33:52.486Z,98438.20
2018-04-06T04:34:24.103Z,98442.45
2018-04-06T04:34:55.702Z,98432.63
2018-04-06T04:35:27.288Z,98437.76
2018-04-06T04:35:58.898Z,98441.55
2018-04-06T04:36:30.497Z,98445.39
2018-04-06T04:37:02.084Z,98446.66
2018-04-06T04:37:33.734Z,98444.53
2018-04-06T04:38:05.310Z,98444.53
2018-04-06T04:38:36.893Z,98443.68
2018-04-06T04:39:08.480Z,98446.70
2018-04-06T04:39:40.080Z,98444.14
2018-04-06T04:40:11.681Z,98442.02
2018-04-06T04:40:43.320Z,98442.79
2018-04-06T04:41:14.932Z,98447.51
2018-04-06T04:41:46.523Z,98444.88
2018-04-06T04:42:18.109Z,98445.72
2018-04-06T04:42:49.716Z,98444.44
2018-04-06T04:43:21.308Z,98446.95
2018-04-06T04:43:53.002Z,98443.12
2018-04-06T04:44:24.594Z,98444.41
2018-04-06T04:44:56.185Z,98443.12
2018-04-06T04:45:27.792Z,98443.12
2018-04-06T04:45:59.443Z,98446.53
2018-04-06T04:46:31.040Z,98436.73
2018-04-06T04:47:02.641Z,98441.38
2018-04-06T04:47:34.255Z,98442.23
2018-04-06T04:48:05.875Z,98443.50
2018-04-06T04:48:37.474Z,98441.38
2018-04-06T04:49:09.062Z,98447.30
2018-04-06T04:49:40.668Z,98447.33
2018-04-06T04:50:12.275Z,98450.31
2018-04-06T04:50:43.868Z,98444.36
2018-04-06T04:51:15.503Z,98449.93
2018-04-06T04:51:47.113Z,98452.87
2018-04-06T04:52:18.728Z,98458.41
2018-04-06T04:52:50.320Z,98451.98
2018-04-06T04:53:21.913Z,98451.97
2018-04-06T04:53:53.506Z,98454.92
2018-04-06T04:54:25.120Z,98454.52
2018-04-06T04:54:56.708Z,98447.67
2018-04-06T04:55:28.316Z,98460.02
2018-04-06T04:55:59.929Z,98458.74
2018-04-06T04:56:31.564Z,98454.48
2018-04-06T04:57:03.142Z,98457.94
2018-04-06T04:57:34.758Z,98457.52
2018-04-06T04:58:06.340Z,98457.52
2018-04-06T04:58:37.923Z,98462.63
2018-04-06T04:59:09.523Z,98428.88
2018-04-06T04:59:41.126Z,98465.17
2018-04-06T05:00:12.736Z,98463.91
2018-04-06T05:00:44.325Z,98462.23
2018-04-06T05:01:15.927Z,98460.53
2018-04-06T05:01:47.535Z,98462.24
2018-04-06T05:02:19.126Z,98459.69
2018-04-06T05:02:50.752Z,98459.69
2018-04-06T05:03:22.348Z,98459.68
2018-04-06T05:03:53.969Z,98460.11
2018-04-06T05:04:25.598Z,98463.52
2018-04-06T05:04:57.222Z,98465.64
2018-04-06T05:05:28.841Z,98470.28
2018-04-06T05:06:00.448Z,98468.20
2018-04-06T05:06:32.051Z,98473.69
2018-04-06T05:07:03.693Z,98468.20
2018-04-06T05:07:35.276Z,98476.72
2018-04-06T05:08:06.862Z,98469.05
2018-04-06T05:08:38.472Z,98469.02
2018-04-06T05:09:10.060Z,98474.13
2018-04-06T05:09:41.672Z,98471.56
2018-04-06T05:10:13.287Z,98475.87
2018-04-06T05:10:44.879Z,98480.98
2018-04-06T05:11:16.469Z,98478.42
2018-04-06T05:11:48.065Z,98476.76
2018-04-06T05:12:19.718Z,98470.80
2018-04-06T05:12:51.298Z,98481.44
2018-04-06T05:13:22.944Z,98479.70
2018-04-06T05:13:54.556Z,98478.88
2018-04-06T05:14:26.145Z,98481.87
2018-04-06T05:14:57.741Z,98481.45
2018-04-06T05:15:29.349Z,98484.89
2018-04-06T05:16:00.948Z,98484.04
2018-04-06T05:16:32.547Z,98484.05
2018-04-06T05:17:04.141Z,98484.51
2018-04-06T05:17:35.776Z,98484.94
2018-04-06T05:18:07.436Z,98486.64
2018-04-06T05:18:39.039Z,98476.93
2018-04-06T05:19:10.619Z,98483.70
2018-04-06T05:19:42.204Z,98482.00
2018-04-06T05:20:13.792Z,98478.59
2018-04-06T05:20:45.385Z,98477.78
2018-04-06T05:21:16.996Z,98477.36
2018-04-06T05:21:48.625Z,98477.36
2018-04-06T05:22:20.245Z,98482.05
2018-04-06T05:22:51.830Z,98482.05
2018-04-06T05:23:23.441Z,98478.25
2018-04-06T05:23:55.073Z,98479.53
2018-04-06T05:24:26.743Z,98485.45
2018-04-06T05:24:58.306Z,98484.64
2018-04-06T05:25:29.893Z,98485.06
2018-04-06T05:26:01.471Z,98484.69
2018-04-06T05:26:33.072Z,98482.98
2018-04-06T05:27:04.660Z,98485.15
2018-04-06T05:27:36.259Z,98480.47
2018-04-06T05:28:07.864Z,98489.88
2018-04-06T05:28:39.476Z,98483.48
2018-04-06T05:29:11.115Z,98488.20
2018-04-06T05:29:42.716Z,98488.67
2018-04-06T05:30:14.323Z,98476.45
2018-04-06T05:30:45.922Z,98492.08
2018-04-06T05:31:17.539Z,98485.73
2018-04-06T05:31:49.142Z,98491.69
2018-04-06T05:32:20.764Z,98500.63
2018-04-06T05:32:52.375Z,98488.75
2018-04-06T05:33:23.979Z,98493.86
2018-04-06T05:33:55.582Z,98495.56
2018-04-06T05:34:27.204Z,98495.13
2018-04-06T05:34:58.812Z,98492.20
2018-04-06T05:35:30.424Z,98497.27
2018-04-06T05:36:02.056Z,98500.67
2018-04-06T05:36:33.667Z,98497.69
2018-04-06T05:37:05.253Z,98500.28
2018-04-06T05:37:36.840Z,98496.45
2018-04-06T05:38:08.448Z,98501.55
2018-04-06T05:38:40.069Z,98506.23
2018-04-06T05:39:11.680Z,98503.69
2018-04-06T05:39:43.269Z,98503.72
2018-04-06T05:40:14.924Z,98497.30
2018-04-06T05:40:46.527Z,98507.94
2018-04-06T05:41:18.142Z,98496.45
2018-04-06T05:41:49.778Z,98498.97
2018-04-06T05:42:21.389Z,98504.50
2018-04-06T05:42:53.005Z,98506.20
2018-04-06T05:43:24.592Z,98501.52
2018-04-06T05:43:56.205Z,98508.33
2018-04-06T05:44:27.825Z,98501.98
2018-04-06T05:44:59.407Z,98504.92
2018-04-06T05:45:30.980Z,98504.50
2018-04-06T05:46:02.605Z,98507.05
2018-04-06T05:46:34.231Z,98509.61
2018-04-06T05:47:05.839Z,98506.16
2018-04-06T05:47:37.491Z,98507.05
2018-04-06T05:48:09.108Z,98498.55
2018-04-06T05:48:40.697Z,98504.53
2018-04-06T05:49:12.284Z,98509.56
2018-04-06T05:49:43.858Z,98503.61
2018-04-06T05:50:15.489Z,98502.76
2018-04-06T05:50:47.098Z,98502.34
2018-04-06T05:51:18.718Z,98508.25
2018-04-06T05:51:50.303Z,98514.17
2018-04-06T05:52:21.904Z,98507.78
2018-04-06T05:52:53.496Z,98508.60
2018-04-06T05:53:25.071Z,98513.23
2018-04-06T05:53:56.684Z,98510.66
2018-04-06T05:54:28.296Z,98513.23
2018-04-06T05:54:59.912Z,98510.69
2018-04-06T05:55:31.532Z,98517.46
2018-04-06T05:56:03.135Z,98512.78
2018-04-06T05:56:34.728Z,98516.19
2018-04-06T05:57:06.353Z,98512.73
2018-04-06T05:57:37.980Z,98514.83
2018-04-06T05:58:09.573Z,98512.23
2018-04-06T05:58:41.210Z,98519.89
2018-04-06T05:59:12.816Z,98512.69
2018-04-06T05:59:44.502Z,98516.48
2018-04-06T06:00:16.120Z,98522.48
2018-04-06T06:00:47.722Z,98511.42
2018-04-06T06:01:19.331Z,98515.67
2018-04-06T06:01:50.925Z,98523.72
2018-04-06T06:02:22.516Z,98522.45
2018-04-06T06:02:54.105Z,98520.31
2018-04-06T06:03:25.720Z,98519.89
2018-04-06T06:03:57.328Z,98523.26
2018-04-06T06:04:28.935Z,98521.56
2018-04-06T06:05:00.579Z,98523.68
2018-04-06T06:05:32.178Z,98521.13
2018-04-06T06:06:03.774Z,98524.92
2018-04-06T06:06:35.384Z,98530.50
2018-04-06T06:07:06.998Z,98527.94
2018-04-06T06:07:38.587Z,98523.67
2018-04-06T06:08:10.186Z,98526.66
2018-04-06T06:08:41.789Z,98536.45
2018-04-06T06:09:13.384Z,98534.28
2018-04-06T06:09:44.988Z,98529.99
2018-04-06T06:10:16.581Z,98532.93
2018-04-06T06:10:48.178Z,98523.56
2018-04-06T06:11:19.788Z,98527.39